NCAR-RAP Real-Time Weather Data

Output produced by METARs form (19 January 2017  13:00 UTC)
found at http://weather.rap.ucar.edu/surface/
 
Conditions at: KLOU observed 19 January 2017  12:53 UTC
Temperature: 5.6°C (42°F)
Dewpoint: 2.8°C (37°F) [RH = 82%]
Pressure (altimeter): 30.06 inches Hg (1018.0 mb)
[Sea-level pressure: 1018.1 mb]
Winds: from the E (80 degrees) at 3 MPH (3 knots; 1.6 m/s)
Visibility: 10 or more miles (16+ km)
Ceiling: 9000 feet AGL
Clouds: overcast cloud deck at 9000 feet AGL
Present Weather: no significant weather observed at this time
KLOU 191253Z 08003KT 10SM OVC090 06/03 A3006 RMK AO2 SLP181 T00560028